Time;durP1;ratioP1;P1;durP2;ratioP2;P2;SDS_P1;SDS_P2;PMS_P1;PMS_P2;Temp;Humidity;BMP_temperature;BMP_pressure;BME280_temperature;BME280_humidity;BME280_pressure;Samples;Min_cycle;Max_cycle;Signal;HPM_P1;HPM_P2
2023/08/31 00:01:03;;;;;;;12.40;7.70;;;;;;;15.02;100.00;100119.49;105696;1254;72641;-50
2023/08/31 00:03:31;;;;;;;15.60;8.30;;;;;;;14.98;100.00;100118.79;105690;1257;61959;-52
2023/08/31 00:06:01;;;;;;;15.30;7.30;;;;;;;14.92;100.00;100108.41;105675;1257;60875;-51
2023/08/31 00:08:28;;;;;;;15.00;7.20;;;;;;;14.88;100.00;100103.38;105726;1254;72533;-52
2023/08/31 00:10:59;;;;;;;13.00;7.60;;;;;;;14.84;100.00;100095.58;105668;1257;64673;-50
2023/08/31 00:13:27;;;;;;;17.20;8.00;;;;;;;14.81;100.00;100088.05;105696;1257;72429;-52
2023/08/31 00:15:56;;;;;;;16.30;7.80;;;;;;;14.77;100.00;100081.74;105657;1254;60549;-52
2023/08/31 00:18:25;;;;;;;15.10;8.20;;;;;;;14.72;100.00;100070.02;105687;1254;60424;-52
2023/08/31 00:20:52;;;;;;;25.70;8.40;;;;;;;14.64;100.00;100052.92;105702;1257;73729;-50
2023/08/31 00:23:19;;;;;;;17.20;8.00;;;;;;;14.55;100.00;100029.17;105740;1257;64683;-50
2023/08/31 00:25:48;;;;;;;15.00;7.90;;;;;;;14.43;100.00;100011.98;105673;1254;72628;-51
2023/08/31 00:28:18;;;;;;;18.70;7.80;;;;;;;14.32;100.00;100010.13;105658;1257;60354;-52
2023/08/31 00:30:45;;;;;;;17.10;8.10;;;;;;;14.23;100.00;100011.19;105668;1254;60428;-49
2023/08/31 00:33:13;;;;;;;19.20;8.00;;;;;;;14.14;100.00;100026.66;105672;1254;74347;-53
2023/08/31 00:35:45;;;;;;;17.00;8.90;;;;;;;14.04;100.00;100061.05;105702;1259;63831;-52
2023/08/31 00:38:12;;;;;;;21.30;7.40;;;;;;;13.95;100.00;100094.70;105691;1257;71563;-52
2023/08/31 00:40:46;;;;;;;24.40;8.30;;;;;;;13.86;100.00;100132.02;105673;1259;61986;-50
2023/08/31 00:43:17;;;;;;;19.60;9.30;;;;;;;13.78;100.00;100167.32;105719;1254;60552;-52
2023/08/31 00:45:45;;;;;;;14.50;8.80;;;;;;;13.71;100.00;100201.38;105703;1255;73800;-50
2023/08/31 00:48:12;;;;;;;21.10;9.10;;;;;;;13.68;100.00;100232.53;105692;1257;64626;-52
2023/08/31 00:50:39;;;;;;;16.60;9.40;;;;;;;13.70;100.00;100251.70;105682;1254;72794;-51
2023/08/31 00:53:06;;;;;;;23.60;11.00;;;;;;;13.72;100.00;100266.70;105648;1259;61964;-57
2023/08/31 00:55:32;;;;;;;30.60;13.90;;;;;;;13.72;100.00;100297.40;105686;1254;60602;-55
2023/08/31 00:58:00;;;;;;;31.80;12.60;;;;;;;13.70;100.00;100351.23;105597;1259;73700;-50
2023/08/31 01:00:53;;;;;;;26.10;12.20;;;;;;;13.67;100.00;100396.59;105738;1257;64675;-51
2023/08/31 01:03:33;;;;;;;26.40;12.30;;;;;;;13.62;100.00;100428.83;105522;1257;72725;-52
2023/08/31 01:06:15;;;;;;;31.50;13.00;;;;;;;13.57;100.00;100430.36;105688;1257;60451;-53
2023/08/31 01:08:56;;;;;;;25.00;10.00;;;;;;;13.55;100.00;100423.16;105678;1254;60536;-50
2023/08/31 01:12:08;;;;;;;26.90;11.30;;;;;;;13.50;100.00;100391.40;105660;1254;73715;-49
2023/08/31 01:14:42;;;;;;;24.90;11.40;;;;;;;13.41;100.00;100347.81;105245;1265;64681;-50
2023/08/31 01:17:08;;;;;;;29.70;12.90;;;;;;;13.32;100.00;100347.38;105171;1265;72455;-50
2023/08/31 01:19:49;;;;;;;25.00;12.50;;;;;;;13.22;100.00;100363.27;105372;1260;60429;-50
2023/08/31 01:22:42;;;;;;;31.20;12.60;;;;;;;13.10;100.00;100389.44;105467;1254;304147;-52
2023/08/31 01:27:42;;;;;;;28.30;12.70;;;;;;;12.93;100.00;100433.94;102792;1286;602698;-51
2023/08/31 01:30:10;;;;;;;31.50;12.80;;;;;;;12.82;100.00;100466.29;104858;1272;59243;-51
2023/08/31 01:32:37;;;;;;;29.00;13.30;;;;;;;12.75;100.00;100479.98;104853;1266;60933;-52
2023/08/31 01:35:05;;;;;;;40.50;15.00;;;;;;;12.71;100.00;100484.78;104918;1269;72361;-50
2023/08/31 01:37:40;;;;;;;34.60;14.30;;;;;;;12.67;100.00;100492.33;104947;1270;63215;-51
2023/08/31 01:40:32;;;;;;;36.70;14.20;;;;;;;12.64;100.00;100498.80;104634;1264;252325;-51
2023/08/31 01:43:00;;;;;;;33.50;14.30;;;;;;;12.60;100.00;100512.57;105211;1269;60756;-51
2023/08/31 01:45:27;;;;;;;49.70;15.70;;;;;;;12.56;100.00;100516.50;105215;1263;60323;-52
2023/08/31 01:47:54;;;;;;;49.90;16.30;;;;;;;12.53;100.00;100520.03;105180;1267;72115;-49
2023/08/31 01:50:21;;;;;;;52.80;18.30;;;;;;;12.51;100.00;100523.89;104980;1269;64731;-50
2023/08/31 01:52:48;;;;;;;55.60;19.40;;;;;;;12.50;100.00;100523.02;105192;1267;72734;-51
2023/08/31 01:55:16;;;;;;;56.10;16.10;;;;;;;12.52;100.00;100535.98;105153;1267;61799;-52
2023/08/31 01:57:42;;;;;;;55.20;16.90;;;;;;;12.57;100.00;100535.17;105166;1268;60130;-51
2023/08/31 02:00:14;;;;;;;155.70;47.80;;;;;;;12.63;100.00;100523.58;105036;1270;72761;-50
2023/08/31 02:02:41;;;;;;;210.60;71.80;;;;;;;12.69;100.00;100521.02;105256;1267;64578;-50
2023/08/31 02:05:09;;;;;;;178.70;63.20;;;;;;;12.73;100.00;100521.59;105204;1276;72530;-50
2023/08/31 02:07:36;;;;;;;192.20;63.10;;;;;;;12.76;100.00;100523.95;105213;1269;60355;-50
2023/08/31 02:10:06;;;;;;;180.40;60.10;;;;;;;12.75;100.00;100534.17;105237;1263;60344;-50
2023/08/31 02:12:36;;;;;;;131.20;45.70;;;;;;;12.74;100.00;100539.73;105254;1267;73082;-49
2023/08/31 02:15:05;;;;;;;116.80;39.10;;;;;;;12.73;100.00;100553.98;105596;1260;64700;-50
2023/08/31 02:17:34;;;;;;;87.90;30.90;;;;;;;12.72;100.00;100564.92;105611;1260;71315;-51
2023/08/31 02:20:04;;;;;;;74.90;22.50;;;;;;;12.70;100.00;100587.30;105663;1256;61711;-52
2023/08/31 02:22:33;;;;;;;65.00;23.30;;;;;;;12.69;100.00;100605.50;105618;1255;59542;-50
2023/08/31 02:25:01;;;;;;;79.60;27.80;;;;;;;12.68;100.00;100622.48;105644;1259;71928;-50
2023/08/31 02:27:28;;;;;;;54.10;18.50;;;;;;;12.70;100.00;100638.73;105618;1259;63601;-52
2023/08/31 02:29:55;;;;;;;55.70;20.20;;;;;;;12.71;100.00;100652.55;105588;1258;72531;-51
2023/08/31 02:32:22;;;;;;;51.60;17.20;;;;;;;12.75;100.00;100664.41;105603;1258;61889;-51
2023/08/31 02:34:50;;;;;;;42.80;16.20;;;;;;;12.78;100.00;100678.35;105612;1258;60900;-50
2023/08/31 02:37:16;;;;;;;50.40;15.80;;;;;;;12.82;100.00;100690.20;105608;1260;71928;-51
2023/08/31 02:39:44;;;;;;;37.00;14.30;;;;;;;12.85;100.00;100697.07;105667;1259;64745;-50
2023/08/31 02:42:11;;;;;;;35.10;13.30;;;;;;;12.87;100.00;100700.46;105657;1257;72595;-51
2023/08/31 02:44:38;;;;;;;32.50;13.00;;;;;;;12.88;100.00;100699.92;105552;1261;62494;-51
2023/08/31 02:47:05;;;;;;;43.70;13.50;;;;;;;12.90;100.00;100705.09;105619;1258;60218;-52
2023/08/31 02:49:32;;;;;;;27.10;12.20;;;;;;;12.91;100.00;100706.43;105590;1261;73000;-51
2023/08/31 02:51:59;;;;;;;28.70;12.20;;;;;;;12.92;100.00;100706.58;105562;1261;64683;-49
2023/08/31 02:54:26;;;;;;;40.60;11.70;;;;;;;12.94;100.00;100711.58;105646;1257;72635;-55
2023/08/31 02:56:53;;;;;;;27.50;11.60;;;;;;;12.95;100.00;100706.52;105621;1261;61925;-54
2023/08/31 02:59:20;;;;;;;34.10;11.60;;;;;;;12.98;100.00;100700.03;105577;1257;59643;-54
2023/08/31 03:01:49;;;;;;;25.10;11.80;;;;;;;13.01;100.00;100697.02;105480;1257;72963;-53
2023/08/31 03:04:17;;;;;;;35.40;12.40;;;;;;;13.02;100.00;100689.02;105626;1260;64722;-57
2023/08/31 03:06:45;;;;;;;34.20;11.20;;;;;;;13.05;100.00;100679.10;105606;1257;72668;-51
2023/08/31 03:09:13;;;;;;;27.60;10.80;;;;;;;13.07;100.00;100670.37;105593;1269;62168;-52
2023/08/31 03:11:40;;;;;;;34.40;11.70;;;;;;;13.10;100.00;100657.13;105629;1258;59756;-54
2023/08/31 03:14:09;;;;;;;27.20;11.20;;;;;;;13.15;100.00;100636.91;105557;1260;73188;-53
2023/08/31 03:16:37;;;;;;;38.50;12.00;;;;;;;13.21;100.00;100622.17;105600;1260;64586;-52
2023/08/31 03:19:05;;;;;;;32.00;11.20;;;;;;;13.26;100.00;100605.59;105604;1257;72511;-52
2023/08/31 03:21:32;;;;;;;28.70;11.60;;;;;;;13.30;100.00;100582.09;105625;1261;61767;-50
2023/08/31 03:24:00;;;;;;;121.10;15.00;;;;;;;13.34;100.00;100563.41;105634;1258;60269;-52
2023/08/31 03:26:27;;;;;;;49.10;11.30;;;;;;;13.37;100.00;100551.03;105588;1257;73103;-53
2023/08/31 03:28:54;;;;;;;31.90;12.30;;;;;;;13.42;100.00;100536.90;105657;1259;64712;-52
2023/08/31 03:31:21;;;;;;;37.20;11.90;;;;;;;13.49;100.00;100512.75;105660;1257;72504;-51
2023/08/31 03:33:50;;;;;;;30.70;10.70;;;;;;;13.60;100.00;100485.59;105647;1261;60221;-50
2023/08/31 03:36:17;;;;;;;29.70;11.20;;;;;;;13.72;100.00;100452.77;105688;1257;60211;-51
2023/08/31 03:38:44;;;;;;;27.70;10.60;;;;;;;13.86;100.00;100421.27;105623;1257;72881;-50
2023/08/31 03:41:12;;;;;;;24.50;10.30;;;;;;;14.00;100.00;100377.45;105638;1259;63799;-50
2023/08/31 03:43:39;;;;;;;23.40;10.30;;;;;;;14.15;100.00;100330.63;105671;1257;72705;-50
2023/08/31 03:46:06;;;;;;;27.60;10.30;;;;;;;14.25;100.00;100287.22;105581;1260;60491;-51
2023/08/31 03:48:33;;;;;;;28.60;10.30;;;;;;;14.33;100.00;100239.55;105588;1257;60114;-49
2023/08/31 03:51:00;;;;;;;26.40;10.20;;;;;;;14.41;100.00;100195.69;105622;1257;73141;-52
2023/08/31 03:53:27;;;;;;;22.80;9.50;;;;;;;14.48;100.00;100167.47;105641;1259;63790;-50
2023/08/31 03:55:56;;;;;;;28.50;11.10;;;;;;;14.55;100.00;100135.10;105600;1257;72788;-52
2023/08/31 03:58:23;;;;;;;26.20;9.30;;;;;;;14.61;100.00;100100.63;105603;1261;61972;-51
2023/08/31 04:00:52;;;;;;;32.40;9.90;;;;;;;14.69;100.00;100072.54;105642;1256;59542;-50
2023/08/31 04:03:19;;;;;;;26.30;8.90;;;;;;;14.75;100.00;100051.13;105728;1259;73015;-50
2023/08/31 04:05:47;;;;;;;28.70;9.30;;;;;;;14.81;100.00;100032.45;105644;1256;63492;-50
2023/08/31 04:08:14;;;;;;;25.30;9.40;;;;;;;14.86;100.00;100016.08;105631;1258;72704;-51
2023/08/31 04:10:41;;;;;;;26.70;9.40;;;;;;;14.92;100.00;100001.76;105577;1259;60355;-50
2023/08/31 04:13:08;;;;;;;23.60;9.60;;;;;;;14.97;100.00;99994.60;105645;1258;60330;-51
2023/08/31 04:15:35;;;;;;;23.90;8.70;;;;;;;15.02;100.00;99984.99;105600;1260;73076;-49
2023/08/31 04:18:02;;;;;;;30.70;9.70;;;;;;;15.08;100.00;99977.98;105637;1259;64706;-51
2023/08/31 04:20:29;;;;;;;24.30;8.70;;;;;;;15.14;100.00;99970.05;105648;1257;72656;-50
2023/08/31 04:22:56;;;;;;;36.90;10.20;;;;;;;15.20;100.00;99963.66;105632;1259;60412;-51
2023/08/31 04:25:23;;;;;;;23.70;9.20;;;;;;;15.28;100.00;99962.48;105644;1260;60039;-52
2023/08/31 04:27:50;;;;;;;20.20;9.00;;;;;;;15.35;100.00;99967.90;105679;1259;72976;-50
2023/08/31 04:30:17;;;;;;;34.00;10.90;;;;;;;15.41;100.00;99972.30;105606;1259;64472;-49
2023/08/31 04:32:46;;;;;;;32.80;8.70;;;;;;;15.48;100.00;99985.91;105763;1258;72649;-51
2023/08/31 04:35:13;;;;;;;23.90;8.90;;;;;;;15.55;100.00;99997.92;105678;1259;60301;-50
2023/08/31 04:37:40;;;;;;;18.80;7.50;;;;;;;15.63;100.00;100015.48;105577;1257;60295;-50
2023/08/31 04:40:08;;;;;;;18.90;8.10;;;;;;;15.70;100.00;100023.66;105607;1257;72901;-52
2023/08/31 04:42:35;;;;;;;20.40;8.60;;;;;;;15.81;100.00;100047.67;105647;1257;64403;-50
2023/08/31 04:45:03;;;;;;;25.40;8.20;;;;;;;15.92;100.00;100071.21;105635;1258;72497;-52
2023/08/31 04:47:32;;;;;;;25.80;7.90;;;;;;;16.00;100.00;100082.67;105595;1259;60516;-53
2023/08/31 04:50:00;;;;;;;16.00;8.00;;;;;;;16.07;100.00;100099.21;105627;1257;60294;-51
2023/08/31 04:52:26;;;;;;;28.30;7.80;;;;;;;16.22;100.00;100102.02;105636;1258;72980;-51
2023/08/31 04:54:53;;;;;;;18.70;7.40;;;;;;;16.43;100.00;100099.26;105594;1259;63799;-52
2023/08/31 04:57:20;;;;;;;32.90;7.90;;;;;;;16.68;100.00;100106.92;105576;1256;72630;-51
2023/08/31 04:59:47;;;;;;;18.20;7.80;;;;;;;16.93;100.00;100129.77;105611;1260;60388;-52
2023/08/31 05:02:15;;;;;;;16.00;8.20;;;;;;;17.21;100.00;100148.95;105673;1256;60284;-53
2023/08/31 05:04:42;;;;;;;25.60;7.50;;;;;;;17.46;100.00;100151.33;105580;1256;73094;-53
2023/08/31 05:07:09;;;;;;;19.30;7.30;;;;;;;17.71;100.00;100159.30;105465;1257;64660;-54
2023/08/31 05:09:36;;;;;;;28.50;8.30;;;;;;;17.97;100.00;100174.88;105661;1257;72737;-57
2023/08/31 05:12:03;;;;;;;33.40;8.10;;;;;;;18.21;100.00;100188.60;105640;1256;60189;-52
2023/08/31 05:14:30;;;;;;;26.50;7.50;;;;;;;18.40;100.00;100197.23;105640;1256;59717;-52
2023/08/31 05:16:57;;;;;;;24.80;8.60;;;;;;;18.53;100.00;100213.95;105622;1259;72201;-53
2023/08/31 05:19:25;;;;;;;20.50;8.30;;;;;;;18.60;100.00;100220.01;105668;1259;64679;-52
2023/08/31 05:21:54;;;;;;;19.40;7.90;;;;;;;18.65;100.00;100222.55;105635;1259;72773;-53
2023/08/31 05:24:21;;;;;;;34.90;8.90;;;;;;;18.66;100.00;100229.45;105604;1257;60343;-51
2023/08/31 05:26:49;;;;;;;28.30;8.80;;;;;;;18.68;100.00;100239.83;105625;1256;60252;-52
2023/08/31 05:29:16;;;;;;;44.90;9.10;;;;;;;18.73;100.00;100246.05;105674;1257;73078;-51
2023/08/31 05:31:43;;;;;;;30.40;9.10;;;;;;;18.84;100.00;100253.63;105663;1261;64943;-51
2023/08/31 05:34:11;;;;;;;30.20;9.00;;;;;;;18.96;100.00;100253.48;105738;1257;72646;-51
2023/08/31 05:36:38;;;;;;;30.50;8.90;;;;;;;19.09;100.00;100246.67;105648;1258;60346;-52
2023/08/31 05:39:05;;;;;;;31.70;9.20;;;;;;;19.23;100.00;100247.30;105663;1256;60557;-51
2023/08/31 05:41:32;;;;;;;27.00;8.80;;;;;;;19.34;100.00;100247.18;105611;1257;73701;-52
2023/08/31 05:43:58;;;;;;;29.10;9.40;;;;;;;19.43;100.00;100250.66;105625;1259;64860;-51
2023/08/31 05:46:27;;;;;;;28.20;9.70;;;;;;;19.53;100.00;100249.58;105640;1257;72659;-52
2023/08/31 05:48:54;;;;;;;26.30;9.00;;;;;;;19.62;100.00;100251.67;105676;1260;60368;-52
2023/08/31 05:51:21;;;;;;;34.20;10.90;;;;;;;19.71;100.00;100254.27;105653;1258;60449;-51
2023/08/31 05:53:48;;;;;;;35.40;9.40;;;;;;;19.79;100.00;100260.42;105622;1257;73837;-52
2023/08/31 05:56:15;;;;;;;22.90;8.40;;;;;;;19.83;100.00;100263.74;105639;1259;64521;-52
2023/08/31 05:58:42;;;;;;;34.80;8.20;;;;;;;19.83;100.00;100273.16;105572;1258;72676;-53
2023/08/31 06:01:08;;;;;;;21.00;9.20;;;;;;;19.87;100.00;100280.86;105653;1256;60332;-53
2023/08/31 06:03:36;;;;;;;39.20;9.80;;;;;;;19.91;100.00;100280.80;105642;1257;61192;-53
2023/08/31 06:06:03;;;;;;;21.50;8.30;;;;;;;19.95;100.00;100292.10;105650;1255;73780;-51
2023/08/31 06:08:30;;;;;;;26.30;8.30;;;;;;;20.02;100.00;100293.60;105620;1259;64592;-52
2023/08/31 06:10:57;;;;;;;28.90;8.20;;;;;;;20.10;100.00;100296.99;105654;1256;72646;-51
2023/08/31 06:13:24;;;;;;;35.20;10.60;;;;;;;20.20;100.00;100299.35;105627;1259;60344;-52
2023/08/31 06:15:51;;;;;;;29.20;9.10;;;;;;;20.32;100.00;100294.02;105643;1257;60447;-52
2023/08/31 06:18:18;;;;;;;22.90;9.70;;;;;;;20.47;100.00;100294.20;105672;1256;73856;-51
2023/08/31 06:20:45;;;;;;;25.60;8.90;;;;;;;20.62;100.00;100297.79;105612;1259;64591;-53
2023/08/31 06:23:12;;;;;;;21.20;8.20;;;;;;;20.80;100.00;100298.14;105592;1256;72740;-52
2023/08/31 06:25:39;;;;;;;25.00;8.30;;;;;;;20.95;100.00;100293.67;105656;1259;60364;-51
2023/08/31 06:28:08;;;;;;;31.70;8.40;;;;;;;21.09;100.00;100292.61;105882;1253;60540;-52
2023/08/31 06:30:35;;;;;;;23.00;8.60;;;;;;;21.22;100.00;100290.48;105935;1252;73722;-53
2023/08/31 06:33:03;;;;;;;28.00;8.70;;;;;;;21.34;100.00;100294.81;105908;1255;64693;-52
2023/08/31 06:35:30;;;;;;;20.00;8.50;;;;;;;21.48;100.00;100301.60;105946;1252;72879;-50
2023/08/31 06:37:57;;;;;;;27.50;9.10;;;;;;;21.63;93.29;100288.17;105942;1255;60677;-52
2023/08/31 06:40:25;;;;;;;23.50;8.30;;;;;;;21.74;86.05;100283.03;105950;1252;60396;-53
2023/08/31 06:42:51;;;;;;;21.10;8.50;;;;;;;21.86;84.60;100300.01;105959;1255;73705;-51
2023/08/31 06:45:18;;;;;;;23.50;8.60;;;;;;;21.99;82.78;100296.13;105925;1255;64689;-50
2023/08/31 06:47:45;;;;;;;20.10;7.90;;;;;;;22.18;79.83;100289.75;105945;1253;72628;-51
2023/08/31 06:50:12;;;;;;;26.30;8.10;;;;;;;22.34;80.40;100305.08;105879;1256;60419;-52
2023/08/31 06:52:41;;;;;;;25.80;8.40;;;;;;;22.47;79.89;100307.20;105948;1251;60530;-51
2023/08/31 06:55:10;;;;;;;17.60;8.00;;;;;;;22.51;78.89;100311.86;106035;1252;73839;-53
2023/08/31 06:57:37;;;;;;;37.90;9.00;;;;;;;22.56;78.17;100305.59;105894;1256;64630;-52
2023/08/31 07:00:07;;;;;;;19.60;8.80;;;;;;;22.62;75.78;100293.14;105936;1253;72690;-54
2023/08/31 07:02:39;;;;;;;24.00;8.30;;;;;;;22.71;74.09;100289.52;105922;1256;60453;-54
2023/08/31 07:05:06;;;;;;;21.30;9.30;;;;;;;22.81;75.71;100314.87;105974;1255;60514;-55
2023/08/31 07:07:33;;;;;;;27.10;8.10;;;;;;;22.93;74.36;100295.15;105978;1251;73844;-57
2023/08/31 07:10:00;;;;;;;21.70;7.40;;;;;;;23.07;71.27;100264.09;105876;1256;64602;-52
2023/08/31 07:12:27;;;;;;;20.40;8.10;;;;;;;23.23;69.51;100247.94;105729;1253;72638;-53
2023/08/31 07:14:54;;;;;;;33.90;8.50;;;;;;;23.37;67.26;100216.84;105925;1256;60398;-54
2023/08/31 07:17:21;;;;;;;25.80;8.10;;;;;;;23.47;66.32;100213.76;106056;1251;60457;-51
2023/08/31 07:19:48;;;;;;;30.10;8.30;;;;;;;23.54;65.59;100218.70;105902;1256;73784;-51
2023/08/31 07:22:15;;;;;;;26.00;8.60;;;;;;;23.62;65.50;100235.48;105933;1256;64370;-52
2023/08/31 07:24:42;;;;;;;27.20;8.60;;;;;;;23.71;65.05;100233.05;105919;1256;73967;-51
2023/08/31 07:27:09;;;;;;;26.50;8.80;;;;;;;23.84;64.34;100228.02;105933;1256;60355;-52
2023/08/31 07:29:36;;;;;;;24.90;8.10;;;;;;;23.96;63.34;100203.98;105909;1252;60515;-51
2023/08/31 07:32:04;;;;;;;31.80;9.10;;;;;;;24.11;64.46;100261.89;105907;1253;73706;-53
2023/08/31 07:34:31;;;;;;;24.00;8.80;;;;;;;24.30;63.27;100221.26;105895;1256;64491;-52
2023/08/31 07:36:59;;;;;;;27.60;8.70;;;;;;;24.46;63.23;100230.08;106006;1253;72664;-51
2023/08/31 07:39:27;;;;;;;32.20;8.60;;;;;;;24.58;61.54;100177.06;105928;1256;60425;-52
2023/08/31 07:41:54;;;;;;;27.00;8.10;;;;;;;24.72;61.00;100165.88;105944;1251;60409;-52
2023/08/31 07:44:22;;;;;;;33.40;8.70;;;;;;;24.90;60.76;100168.65;105928;1253;73788;-52
2023/08/31 07:46:48;;;;;;;29.00;9.00;;;;;;;25.10;61.11;100194.91;105957;1256;65066;-51
2023/08/31 07:49:16;;;;;;;124.20;13.50;;;;;;;25.31;59.77;100132.56;105899;1253;72518;-51
2023/08/31 07:51:42;;;;;;;40.30;9.60;;;;;;;25.46;58.61;100084.49;105952;1255;60907;-52
2023/08/31 07:54:09;;;;;;;33.80;9.30;;;;;;;25.60;58.40;100094.23;105906;1251;60425;-52
2023/08/31 07:56:36;;;;;;;38.40;8.80;;;;;;;25.78;60.53;100219.20;105934;1256;73836;-53
2023/08/31 07:59:04;;;;;;;27.40;7.20;;;;;;;25.94;60.30;100202.08;105891;1254;64845;-50
2023/08/31 08:01:30;;;;;;;19.60;7.10;;;;;;;26.10;58.71;100123.67;105889;1254;72509;-53
2023/08/31 08:03:57;;;;;;;24.40;6.80;;;;;;;26.25;56.92;100020.12;105883;1256;60436;-53
2023/08/31 08:06:25;;;;;;;29.10;6.70;;;;;;;26.41;56.87;100029.67;105967;1253;60467;-52
2023/08/31 08:08:52;;;;;;;16.10;6.50;;;;;;;26.56;55.51;99949.04;105990;1255;73892;-51
2023/08/31 08:11:19;;;;;;;20.20;6.60;;;;;;;26.74;56.37;100039.92;105910;1256;64639;-51
2023/08/31 08:13:46;;;;;;;19.60;6.20;;;;;;;26.93;55.22;99961.55;105874;1251;72547;-52
2023/08/31 08:16:14;;;;;;;19.30;6.30;;;;;;;27.09;52.96;99758.34;105889;1256;60543;-51
2023/08/31 08:18:41;;;;;;;29.90;6.60;;;;;;;27.21;52.41;99739.81;105997;1252;60601;-52
2023/08/31 08:21:08;;;;;;;20.20;6.20;;;;;;;27.32;53.14;99836.30;105915;1255;74248;-52
2023/08/31 08:23:35;;;;;;;15.50;6.70;;;;;;;27.51;53.06;99855.20;105880;1256;64636;-55
2023/08/31 08:26:02;;;;;;;28.20;6.60;;;;;;;27.68;53.53;99909.67;105778;1251;73125;-52
2023/08/31 08:28:29;;;;;;;23.40;6.60;;;;;;;27.90;53.84;99914.55;105724;1256;60346;-51
2023/08/31 08:30:56;;;;;;;23.40;6.50;;;;;;;28.20;54.06;99939.66;105656;1254;60340;-51
2023/08/31 08:33:24;;;;;;;30.40;7.20;;;;;;;28.48;52.30;99764.70;105719;1256;73844;-53
2023/08/31 08:35:51;;;;;;;20.90;7.40;;;;;;;28.68;50.89;99633.95;105699;1256;64924;-53
2023/08/31 08:38:20;;;;;;;25.30;8.50;;;;;;;28.83;50.75;99644.08;105674;1256;72632;-55
2023/08/31 08:40:47;;;;;;;32.80;7.90;;;;;;;29.01;51.46;99716.55;105806;1252;61119;-52
2023/08/31 08:43:20;;;;;;;33.00;8.60;;;;;;;29.25;51.98;99793.48;109540;1251;60178;-54
2023/08/31 08:45:47;;;;;;;28.10;7.50;;;;;;;29.41;48.15;99387.66;109539;1251;73715;-53
2023/08/31 08:48:14;;;;;;;34.20;7.40;;;;;;;29.38;48.74;99420.99;109624;1251;64376;-53
2023/08/31 08:50:41;;;;;;;27.30;7.40;;;;;;;29.43;49.56;99562.30;109619;1251;72719;-54
2023/08/31 08:53:08;;;;;;;30.00;7.50;;;;;;;29.51;48.85;99486.74;109554;1251;58994;-53
2023/08/31 08:55:35;;;;;;;28.20;7.30;;;;;;;29.59;49.86;99636.02;109560;1251;60184;-53
2023/08/31 08:58:03;;;;;;;25.70;8.30;;;;;;;29.77;49.08;99558.80;109530;1251;73848;-54
2023/08/31 09:00:30;;;;;;;32.00;7.80;;;;;;;29.91;48.06;99427.44;109607;1251;64497;-53
2023/08/31 09:02:57;;;;;;;27.60;7.30;;;;;;;30.05;47.54;99385.10;109584;1251;72487;-53
2023/08/31 09:05:24;;;;;;;40.50;8.00;;;;;;;30.15;47.16;99329.92;109518;1251;58891;-53
2023/08/31 09:13:35;;;;;;;;;;;;;;;30.23;48.32;99504.85;102441;1294;602516;-58
2023/08/31 09:16:03;;;;;;;30.10;7.20;;;;;;;30.44;48.69;99602.92;105003;1263;59308;-55
2023/08/31 09:18:32;;;;;;;21.90;6.30;;;;;;;30.60;47.00;99366.74;104917;1265;59344;-53
2023/08/31 09:21:00;;;;;;;27.90;6.60;;;;;;;30.64;46.57;99315.20;104966;1264;72218;-53
2023/08/31 09:23:27;;;;;;;27.20;6.10;;;;;;;30.65;46.26;99282.77;105570;1262;64688;-53
2023/08/31 09:25:55;;;;;;;18.50;5.40;;;;;;;30.58;46.61;99326.76;105038;1262;349869;-55
2023/08/31 09:28:26;;;;;;;32.10;6.20;;;;;;;30.44;46.76;99381.40;105417;1260;60158;-55
2023/08/31 09:30:53;;;;;;;13.50;5.60;;;;;;;30.19;47.60;99493.05;105446;1256;60324;-52
2023/08/31 09:33:20;;;;;;;20.40;5.60;;;;;;;30.03;48.48;99626.80;105431;1256;72133;-53
2023/08/31 09:35:53;;;;;;;18.60;5.70;;;;;;;30.08;49.76;99778.38;105219;1257;65368;-53
2023/08/31 09:38:21;;;;;;;18.50;5.70;;;;;;;30.32;50.47;99866.00;105268;1256;73345;-54
2023/08/31 09:40:48;;;;;;;25.00;5.20;;;;;;;30.65;50.09;99828.77;105262;1261;59991;-53
2023/08/31 09:43:22;;;;;;;13.90;5.40;;;;;;;30.88;48.78;99655.90;105434;1256;60502;-51
2023/08/31 09:45:50;;;;;;;20.80;5.50;;;;;;;31.08;48.60;99626.66;105343;1256;72808;-52
2023/08/31 09:48:19;;;;;;;15.20;5.50;;;;;;;31.28;47.31;99465.54;105471;1256;66046;-53
2023/08/31 09:50:47;;;;;;;15.90;5.60;;;;;;;31.35;46.71;99398.27;105466;1255;74203;-52
2023/08/31 09:53:15;;;;;;;39.00;6.70;;;;;;;31.15;47.16;99448.80;105575;1259;60640;-54
2023/08/31 09:55:43;;;;;;;17.30;6.00;;;;;;;30.80;46.39;99378.95;105325;1256;60576;-50
2023/08/31 09:58:10;;;;;;;22.80;5.40;;;;;;;30.38;47.70;99548.48;105501;1260;72938;-53
2023/08/31 10:00:40;;;;;;;30.40;6.00;;;;;;;30.10;48.46;99677.98;105523;1260;64858;-53
2023/08/31 10:03:08;;;;;;;21.20;6.70;;;;;;;29.96;49.47;99814.95;109254;1256;71370;-55
2023/08/31 10:05:35;;;;;;;19.90;6.30;;;;;;;29.83;50.37;99936.11;109345;1255;58772;-54
2023/08/31 10:11:46;;;;;;;;;;;;;;;29.63;51.86;100135.36;102800;1290;615095;-52
2023/08/31 10:14:13;;;;;;;20.80;6.50;;;;;;;29.63;53.79;100300.48;105224;1263;59306;-52
2023/08/31 10:16:40;;;;;;;38.60;8.30;;;;;;;29.65;53.58;100289.77;105093;1266;60018;-51
2023/08/31 10:19:08;;;;;;;26.60;7.10;;;;;;;29.64;53.71;100287.48;104871;1265;72225;-52
2023/08/31 10:21:37;;;;;;;33.50;8.10;;;;;;;29.59;53.81;100270.87;105089;1267;64862;-52
2023/08/31 10:24:06;;;;;;;44.50;7.00;;;;;;;29.59;53.41;100227.27;104901;1268;265449;-53
2023/08/31 10:26:33;;;;;;;36.40;7.30;;;;;;;29.58;54.05;100252.31;105251;1263;60138;-52
2023/08/31 10:29:02;;;;;;;34.20;6.60;;;;;;;29.72;54.24;100266.80;105655;1257;60290;-52
2023/08/31 10:31:33;;;;;;;25.30;6.70;;;;;;;29.86;52.46;100061.86;105631;1257;74041;-52
2023/08/31 10:34:04;;;;;;;23.60;6.50;;;;;;;29.87;52.30;100055.45;105485;1259;64690;-51
2023/08/31 10:36:45;;;;;;;14.50;6.30;;;;;;;29.86;52.11;100046.86;105486;1256;73810;-53
2023/08/31 10:39:15;;;;;;;20.80;6.40;;;;;;;29.85;52.44;100068.13;105457;1259;60424;-54
2023/08/31 10:41:47;;;;;;;22.40;7.00;;;;;;;29.95;53.07;100117.08;105615;1256;60119;-53
2023/08/31 10:44:25;;;;;;;19.30;7.20;;;;;;;30.08;53.00;100102.36;105457;1260;73289;-53
2023/08/31 10:46:53;;;;;;;29.50;7.00;;;;;;;30.24;52.25;100029.51;105581;1257;63245;-53
2023/08/31 10:49:22;;;;;;;19.00;7.40;;;;;;;30.33;51.55;99969.30;105429;1256;72652;-54
2023/08/31 10:51:58;;;;;;;19.60;6.60;;;;;;;30.44;51.46;99948.98;105591;1257;59759;-53
2023/08/31 10:54:27;;;;;;;22.60;7.80;;;;;;;30.58;50.19;99803.16;105581;1257;60493;-52
2023/08/31 10:56:54;;;;;;;17.50;7.10;;;;;;;30.56;49.70;99734.33;105607;1259;72944;-52
2023/08/31 10:59:22;;;;;;;12.70;6.40;;;;;;;30.42;49.13;99714.93;105589;1259;64413;-54
2023/08/31 11:02:02;;;;;;;17.80;6.70;;;;;;;30.23;49.53;99755.13;105399;1258;72539;-53
2023/08/31 11:04:31;;;;;;;21.60;6.20;;;;;;;30.06;49.29;99770.94;105508;1259;60345;-53
2023/08/31 11:07:15;;;;;;;16.90;5.60;;;;;;;29.92;48.73;99705.58;105430;1257;62056;-52
2023/08/31 11:09:45;;;;;;;25.00;6.90;;;;;;;29.74;47.82;99608.50;105605;1257;74779;-56
2023/08/31 11:12:12;;;;;;;14.70;6.50;;;;;;;29.57;48.02;99668.02;105408;1257;63618;-53
2023/08/31 11:14:39;;;;;;;23.20;6.20;;;;;;;29.63;49.03;99774.73;105549;1257;72687;-54
2023/08/31 11:17:07;;;;;;;30.30;6.90;;;;;;;30.03;48.08;99671.84;105395;1256;62062;-52
2023/08/31 11:19:35;;;;;;;21.30;7.00;;;;;;;30.61;46.46;99452.95;105407;1262;61437;-53
2023/08/31 11:22:03;;;;;;;19.50;7.00;;;;;;;31.17;46.43;99429.16;105356;1261;72432;-54